createdAt,value
2022-10-02T00:01:01.013Z,72
2022-10-02T00:02:18.017Z,72.5
2022-10-02T00:03:35.040Z,73.1
2022-10-02T00:04:52.038Z,73.3
2022-10-02T00:06:09.028Z,73.7
2022-10-02T00:07:26.066Z,73.9
2022-10-02T00:08:43.095Z,74
2022-10-02T00:10:00.278Z,73.6
2022-10-02T00:11:17.104Z,73.2
2022-10-02T00:12:34.020Z,73.2
2022-10-02T00:13:51.049Z,73.1
2022-10-02T00:15:08.091Z,73.2
2022-10-02T00:16:25.074Z,73.4
2022-10-02T00:17:42.271Z,73.4
2022-10-02T00:18:59.037Z,73.6
2022-10-02T00:20:16.044Z,73.8
2022-10-02T00:21:34.157Z,74.1
2022-10-02T00:22:51.081Z,74.1
2022-10-02T00:24:08.052Z,74.1
2022-10-02T00:25:25.029Z,74
2022-10-02T00:26:42.066Z,74.1
2022-10-02T00:27:59.108Z,74.4
2022-10-02T00:29:16.063Z,74.2
2022-10-02T00:30:33.083Z,74.1
2022-10-02T00:31:50.165Z,74
2022-10-02T00:33:07.091Z,73.9
2022-10-02T00:34:24.058Z,74.1
2022-10-02T00:35:41.061Z,74.5
2022-10-02T00:36:58.100Z,74.3
2022-10-02T00:38:15.096Z,74.4
2022-10-02T00:39:32.059Z,74.5
2022-10-02T00:40:49.133Z,74.4
2022-10-02T00:42:06.084Z,74.3
2022-10-02T00:43:24.188Z,74.4
2022-10-02T00:44:41.055Z,74.6
2022-10-02T00:45:58.142Z,74.1
2022-10-02T00:47:15.100Z,73.8
2022-10-02T00:48:32.111Z,73.5
2022-10-02T00:49:49.090Z,73.7
2022-10-02T00:51:06.123Z,73.8
2022-10-02T00:52:23.088Z,73.7
2022-10-02T00:53:40.147Z,73.7
2022-10-02T00:54:57.078Z,73.6
2022-10-02T00:56:14.705Z,73.6
2022-10-02T00:57:32.114Z,73.5
2022-10-02T00:58:49.148Z,73.3
2022-10-02T01:00:06.351Z,73.4
2022-10-02T01:01:23.220Z,73.5
2022-10-02T01:02:40.113Z,73.6
2022-10-02T01:03:57.116Z,73.8
2022-10-02T01:05:14.129Z,74
2022-10-02T01:06:31.117Z,74.2
2022-10-02T01:07:48.118Z,74.5
2022-10-02T01:09:05.208Z,74.9
2022-10-02T01:10:22.118Z,74.9
2022-10-02T01:11:39.151Z,74.9
2022-10-02T01:12:56.091Z,74.6
2022-10-02T01:14:13.160Z,74.5
2022-10-02T01:15:30.142Z,74.6
2022-10-02T01:16:47.222Z,74.3
2022-10-02T01:18:04.108Z,74.4
2022-10-02T01:19:22.209Z,74.5
2022-10-02T01:20:39.154Z,74.4
2022-10-02T01:21:56.120Z,74.1
2022-10-02T01:23:13.166Z,74.1
2022-10-02T01:24:30.153Z,73.9
2022-10-02T01:25:47.201Z,74.1
2022-10-02T01:27:04.152Z,74.4
2022-10-02T01:28:21.211Z,74.5
2022-10-02T01:29:38.129Z,74.5
2022-10-02T01:30:55.562Z,74.7
2022-10-02T01:32:13.125Z,74.8
2022-10-02T01:33:30.218Z,75
2022-10-02T01:34:47.144Z,74.9
2022-10-02T01:36:04.220Z,75.1
2022-10-02T01:37:21.494Z,75.1
2022-10-02T01:38:39.163Z,75.1
2022-10-02T01:39:56.399Z,74.9
2022-10-02T01:41:13.179Z,74.5
2022-10-02T01:42:30.572Z,74.6
2022-10-02T01:43:48.186Z,74.4
2022-10-02T01:45:05.152Z,74.3
2022-10-02T01:46:22.198Z,74.5
2022-10-02T01:47:39.190Z,74.6
2022-10-02T01:48:56.255Z,74.6
2022-10-02T01:50:13.247Z,74.7
2022-10-02T01:51:30.196Z,74.7
2022-10-02T01:52:47.176Z,74.7
2022-10-02T01:54:04.156Z,74.7
2022-10-02T01:55:21.200Z,74.6
2022-10-02T01:56:38.593Z,74.7
2022-10-02T01:57:55.235Z,74.5
2022-10-02T01:59:12.181Z,74.2
2022-10-02T02:00:29.254Z,74.1
2022-10-02T02:01:46.338Z,74.1
2022-10-02T02:03:04.280Z,74.1
2022-10-02T02:04:21.220Z,74.2
2022-10-02T02:05:38.274Z,74.4
2022-10-02T02:06:55.198Z,74.5
2022-10-02T02:08:12.218Z,74.2
2022-10-02T02:09:29.190Z,74.2
2022-10-02T02:10:47.297Z,74.3
2022-10-02T02:12:04.190Z,74.7
2022-10-02T02:13:21.372Z,75
2022-10-02T02:14:38.204Z,75
2022-10-02T02:15:55.302Z,74.7
2022-10-02T02:17:12.203Z,74.2
2022-10-02T02:18:29.212Z,74.2
2022-10-02T02:19:46.594Z,74.1
2022-10-02T02:21:04.256Z,74.4
2022-10-02T02:22:21.226Z,74.4
2022-10-02T02:23:38.223Z,74
2022-10-02T02:24:55.229Z,73.9
2022-10-02T02:26:12.314Z,73.8
2022-10-02T02:27:29.245Z,74
2022-10-02T02:28:47.252Z,74.1
2022-10-02T02:30:04.379Z,74.6
2022-10-02T02:31:22.445Z,75
2022-10-02T02:32:39.233Z,75.4
2022-10-02T02:33:56.347Z,75.7
2022-10-02T02:35:13.235Z,75.8
2022-10-02T02:36:30.246Z,75.7
2022-10-02T02:37:47.252Z,75.7
2022-10-02T02:39:04.276Z,75.8
2022-10-02T02:40:21.248Z,76
2022-10-02T02:41:38.266Z,76.1
2022-10-02T02:42:55.255Z,75.8
2022-10-02T02:44:12.327Z,75.4
2022-10-02T02:45:29.281Z,75.1
2022-10-02T02:46:46.266Z,74.7
2022-10-02T02:48:03.615Z,74.3
2022-10-02T02:49:22.043Z,74.2
2022-10-02T02:50:39.287Z,74.2
2022-10-02T02:51:56.649Z,74.2
2022-10-02T02:53:14.252Z,74.2
2022-10-02T02:54:32.393Z,74.1
2022-10-02T02:55:49.325Z,73.9
2022-10-02T02:57:06.304Z,73.9
2022-10-02T02:58:24.331Z,74.1
2022-10-02T02:59:42.345Z,74
2022-10-02T03:00:59.372Z,74.3
2022-10-02T03:02:16.372Z,74.4
2022-10-02T03:03:33.294Z,74.1
2022-10-02T03:04:50.317Z,74.2
2022-10-02T03:06:07.317Z,74.3
2022-10-02T03:07:24.290Z,74.3
2022-10-02T03:08:41.397Z,74.4
2022-10-02T03:09:58.282Z,74.3
2022-10-02T03:11:15.298Z,74.5
2022-10-02T03:12:32.334Z,74.7
2022-10-02T03:13:49.279Z,74.9
2022-10-02T03:15:06.312Z,74.8
2022-10-02T03:16:24.346Z,74.5
2022-10-02T03:17:41.325Z,74.3
2022-10-02T03:18:58.321Z,74.3
2022-10-02T03:20:15.286Z,74.2
2022-10-02T03:21:32.298Z,73.8
2022-10-02T03:22:49.344Z,73.4
2022-10-02T03:24:06.331Z,73.5
2022-10-02T03:25:23.348Z,73.8
2022-10-02T03:26:40.323Z,74.1
2022-10-02T03:27:57.560Z,74.2
2022-10-02T03:29:14.329Z,74.3
2022-10-02T03:30:31.340Z,74.4
2022-10-02T03:31:48.367Z,74.4
2022-10-02T03:33:05.376Z,74.6
2022-10-02T03:34:22.375Z,74.8
2022-10-02T03:35:39.325Z,74.6
2022-10-02T03:36:56.635Z,74.3
2022-10-02T03:38:14.333Z,74.5
2022-10-02T03:39:32.415Z,74.5
2022-10-02T03:40:49.324Z,74.5
2022-10-02T03:42:06.343Z,74.3
2022-10-02T03:43:23.356Z,74.6
2022-10-02T03:44:40.345Z,74.6
2022-10-02T03:45:57.410Z,74.9
2022-10-02T03:47:14.384Z,75.2
2022-10-02T03:48:31.378Z,75.3
2022-10-02T03:49:48.364Z,75.8
2022-10-02T03:51:05.370Z,76.1
2022-10-02T03:52:22.335Z,76
2022-10-02T03:53:39.350Z,75.9
2022-10-02T03:54:56.395Z,75.9
2022-10-02T03:56:13.356Z,75.9
2022-10-02T03:57:30.400Z,76
2022-10-02T03:58:47.429Z,75.8
2022-10-02T04:00:04.632Z,75.7
2022-10-02T04:01:22.448Z,75.5
2022-10-02T04:02:39.398Z,75.5
2022-10-02T04:03:56.469Z,75.6
2022-10-02T04:05:13.383Z,75.2
2022-10-02T04:06:30.367Z,75
2022-10-02T04:07:51.860Z,75.2
2022-10-02T04:09:04.392Z,75.4
2022-10-02T04:10:21.364Z,75.4
2022-10-02T04:11:38.380Z,75
2022-10-02T04:12:55.375Z,75
2022-10-02T04:14:12.459Z,74.8
2022-10-02T04:15:29.398Z,74.4
2022-10-02T04:16:46.400Z,74.5
2022-10-02T04:18:03.414Z,74.5
2022-10-02T04:19:20.438Z,74.7
2022-10-02T04:20:37.386Z,74.9
2022-10-02T04:21:54.379Z,74.9
2022-10-02T04:23:11.391Z,74.9
2022-10-02T04:24:28.412Z,74.9
2022-10-02T04:25:45.445Z,74.7
2022-10-02T04:27:02.437Z,74.5
2022-10-02T04:28:19.449Z,74.1
2022-10-02T04:29:36.466Z,73.7
2022-10-02T04:30:53.388Z,73.4
2022-10-02T04:32:10.428Z,73.4
2022-10-02T04:33:27.432Z,73.6
2022-10-02T04:34:44.445Z,73.6
2022-10-02T04:36:01.430Z,73.4
2022-10-02T04:37:18.521Z,73.2
2022-10-02T04:38:35.408Z,73.2
2022-10-02T04:39:52.421Z,73
2022-10-02T04:41:09.455Z,72.6
2022-10-02T04:42:26.470Z,72.1
2022-10-02T04:43:43.462Z,72.3
2022-10-02T04:45:00.434Z,72.5
2022-10-02T04:46:17.482Z,72.9
2022-10-02T04:47:34.437Z,73.4
2022-10-02T04:48:51.451Z,73.6
2022-10-02T04:50:08.466Z,73.7
2022-10-02T04:51:25.447Z,73.7
2022-10-02T04:52:42.468Z,73.7
2022-10-02T04:53:59.493Z,73.9
2022-10-02T04:55:16.448Z,73.6
2022-10-02T04:56:33.666Z,73.2
2022-10-02T04:57:50.469Z,73.1
2022-10-02T04:59:07.477Z,73.4
2022-10-02T05:00:24.938Z,73.4
2022-10-02T05:01:42.531Z,73.4
2022-10-02T05:02:59.457Z,73.6
2022-10-02T05:04:16.546Z,73.6
2022-10-02T05:05:33.507Z,73.7
2022-10-02T05:06:50.454Z,73.6
2022-10-02T05:08:07.498Z,73.5
2022-10-02T05:09:28.249Z,73.6
2022-10-02T05:10:41.480Z,73.5
2022-10-02T05:11:58.474Z,73.3
2022-10-02T05:13:15.498Z,73
2022-10-02T05:14:32.471Z,72.5
2022-10-02T05:15:49.548Z,72.1
2022-10-02T05:17:06.534Z,71.5
2022-10-02T05:18:23.547Z,71.2
2022-10-02T05:19:40.476Z,71
2022-10-02T05:20:58.570Z,71
2022-10-02T05:22:15.511Z,71.2
2022-10-02T05:23:32.561Z,71.2
2022-10-02T05:24:49.491Z,71.1
2022-10-02T05:26:09.637Z,71.3
2022-10-02T05:27:23.498Z,71.6
2022-10-02T05:28:40.550Z,71.5
2022-10-02T05:29:57.482Z,71.1
2022-10-02T05:31:14.631Z,71.1
2022-10-02T05:32:31.506Z,71.3
2022-10-02T05:33:48.701Z,71.6
2022-10-02T05:35:05.543Z,71.5
2022-10-02T05:36:22.504Z,71.1
2022-10-02T05:37:39.495Z,70.6
2022-10-02T05:38:56.526Z,70.5
2022-10-02T05:40:13.861Z,70.5
2022-10-02T05:41:31.505Z,70.3
2022-10-02T05:42:48.507Z,70
2022-10-02T05:44:05.514Z,70
2022-10-02T05:45:22.555Z,69.8
2022-10-02T05:46:39.955Z,70
2022-10-02T05:47:56.509Z,70.2
2022-10-02T05:49:13.647Z,70.1
2022-10-02T05:50:30.557Z,70
2022-10-02T05:51:47.516Z,70
2022-10-02T05:53:04.531Z,69.7
2022-10-02T05:54:21.526Z,69.6
2022-10-02T05:55:38.542Z,69.4
2022-10-02T05:56:55.515Z,69.2
2022-10-02T05:58:12.524Z,68.6
2022-10-02T05:59:29.574Z,67.4
2022-10-02T06:00:46.635Z,67
2022-10-02T06:02:03.735Z,67.1
2022-10-02T06:03:20.540Z,67.4
2022-10-02T06:04:37.585Z,67.6
2022-10-02T06:05:54.572Z,66.8
2022-10-02T06:07:11.619Z,65.7
2022-10-02T06:08:28.547Z,65.6
2022-10-02T06:09:45.566Z,66.1
2022-10-02T06:11:02.574Z,66.9
2022-10-02T06:12:19.587Z,67
2022-10-02T06:13:36.546Z,66.8
2022-10-02T06:14:53.547Z,66.6
2022-10-02T06:16:10.689Z,66.9
2022-10-02T06:17:28.511Z,67.4
2022-10-02T06:18:45.554Z,68
2022-10-02T06:20:03.904Z,68.1
2022-10-02T06:21:20.576Z,68.2
2022-10-02T06:22:37.579Z,68.4
2022-10-02T06:23:54.574Z,68.3
2022-10-02T06:25:11.611Z,68.5
2022-10-02T06:26:28.647Z,68.5
2022-10-02T06:27:45.699Z,68.1
2022-10-02T06:29:02.625Z,67.5
2022-10-02T06:30:19.626Z,67.2
2022-10-02T06:31:36.707Z,67.1
2022-10-02T06:32:53.620Z,66.9
2022-10-02T06:34:10.795Z,67
2022-10-02T06:35:27.660Z,67.4
2022-10-02T06:36:46.726Z,68.1
2022-10-02T06:38:03.676Z,68.6
2022-10-02T06:39:20.733Z,68.7
2022-10-02T06:40:37.609Z,68.6
2022-10-02T06:41:54.700Z,68.6
2022-10-02T06:43:12.589Z,68.5
2022-10-02T06:44:29.668Z,67.9
2022-10-02T06:45:50.163Z,65.9
2022-10-02T06:47:07.671Z,65.2
2022-10-02T06:48:24.654Z,64.8
2022-10-02T06:49:42.565Z,64.8
2022-10-02T06:50:59.673Z,64.8
2022-10-02T06:52:16.668Z,65.3
2022-10-02T06:53:33.676Z,65.5
2022-10-02T06:54:50.682Z,65.9
2022-10-02T06:56:07.666Z,65.4
2022-10-02T06:57:24.653Z,63.6
2022-10-02T06:58:42.064Z,62.3
2022-10-02T06:59:59.156Z,61.2
2022-10-02T07:01:16.836Z,60.5
2022-10-02T07:02:33.803Z,60.2
2022-10-02T07:03:50.829Z,60.4
2022-10-02T07:05:07.697Z,60.2
2022-10-02T07:06:24.565Z,60.4
2022-10-02T07:07:41.563Z,60.9
2022-10-02T07:08:58.499Z,60.5
2022-10-02T07:10:15.516Z,59.5
2022-10-02T07:11:32.547Z,58.6
2022-10-02T07:12:49.605Z,58.3
2022-10-02T07:14:06.530Z,57.8
2022-10-02T07:15:23.502Z,56.8
2022-10-02T07:16:41.013Z,54.7
2022-10-02T07:17:57.514Z,53.8
2022-10-02T07:19:14.629Z,52.9
2022-10-02T07:20:31.611Z,52.7
2022-10-02T07:25:48.695Z,54.1
2022-10-02T07:27:05.534Z,55.7
2022-10-02T07:28:24.224Z,56.6
2022-10-02T07:29:40.586Z,57.8
2022-10-02T07:30:57.630Z,58.7
2022-10-02T07:32:15.095Z,59.7
2022-10-02T07:33:32.575Z,60.3
2022-10-02T07:34:50.100Z,60.7
2022-10-02T07:36:07.574Z,61.4
2022-10-02T07:37:25.545Z,62.1
2022-10-02T07:38:43.759Z,62.8
2022-10-02T07:40:00.574Z,63.6
2022-10-02T07:41:17.596Z,63.7
2022-10-02T07:42:36.744Z,64.1
2022-10-02T07:43:53.584Z,64.5
2022-10-02T07:45:10.576Z,64.8
2022-10-02T07:46:27.615Z,65.1
2022-10-02T07:47:44.603Z,65.7
2022-10-02T07:49:02.925Z,67.1
2022-10-02T07:50:19.707Z,68.9
2022-10-02T07:51:36.556Z,70.2
2022-10-02T07:52:53.579Z,71.5
2022-10-02T07:54:10.550Z,72.1
2022-10-02T07:55:27.591Z,72.8
2022-10-02T07:56:44.618Z,73.3
2022-10-02T07:58:01.574Z,74.1
2022-10-02T07:59:18.591Z,74.4
2022-10-02T08:00:35.627Z,74.9
2022-10-02T08:01:52.694Z,74.8
2022-10-02T08:03:09.640Z,73.8
2022-10-02T08:04:26.559Z,71.9
2022-10-02T08:05:43.637Z,70
2022-10-02T08:07:00.582Z,68.2
2022-10-02T08:08:17.658Z,67.5
2022-10-02T08:09:34.613Z,66.5
2022-10-02T08:10:51.738Z,66.3
2022-10-02T08:12:08.576Z,67.6
2022-10-02T08:13:25.616Z,68.4
2022-10-02T08:14:42.583Z,68.8
2022-10-02T08:15:59.593Z,69
2022-10-02T08:17:16.610Z,68.5
2022-10-02T08:18:34.931Z,67.8
2022-10-02T08:19:50.690Z,67.1
2022-10-02T08:21:07.652Z,66.8
2022-10-02T08:22:24.621Z,66.2
2022-10-02T08:23:41.622Z,65.5
2022-10-02T08:24:58.663Z,64.9
2022-10-02T08:26:15.672Z,64.3
2022-10-02T08:27:32.579Z,64.2
2022-10-02T08:28:49.676Z,64
2022-10-02T08:30:06.838Z,62.7
2022-10-02T08:31:23.699Z,61.5
2022-10-02T08:32:40.703Z,59.9
2022-10-02T08:33:57.827Z,58.6
2022-10-02T08:35:14.627Z,57.6
2022-10-02T08:36:31.755Z,56.8
2022-10-02T08:37:50.324Z,56.3
2022-10-02T08:39:13.245Z,55.6
2022-10-02T08:40:29.842Z,56.2
2022-10-02T08:41:46.839Z,57.7
2022-10-02T08:43:03.709Z,59.3
2022-10-02T08:44:21.157Z,60.2
2022-10-02T08:45:38.771Z,60.2
2022-10-02T08:46:55.770Z,60.2
2022-10-02T08:48:12.721Z,60.7
2022-10-02T08:49:29.775Z,61.4
2022-10-02T08:50:46.666Z,61.2
2022-10-02T08:52:03.888Z,60.8
2022-10-02T08:53:21.362Z,60.4
2022-10-02T08:54:38.711Z,59.3
2022-10-02T08:55:55.730Z,58.4
2022-10-02T08:57:12.701Z,58.8
2022-10-02T08:58:29.762Z,58.1
2022-10-02T08:59:46.685Z,57.3
2022-10-02T09:01:03.777Z,56.1
2022-10-02T09:07:15.507Z,53.7
2022-10-02T09:08:32.476Z,53.5
2022-10-02T09:09:49.424Z,52.2
2022-10-02T09:11:06.465Z,51.5
2022-10-02T09:12:23.473Z,51.6
2022-10-02T09:13:40.451Z,51
2022-10-02T09:14:58.978Z,49.9
2022-10-02T09:16:14.557Z,49.2
2022-10-02T09:17:31.509Z,49.5
2022-10-02T09:18:48.468Z,50.3
2022-10-02T09:20:05.485Z,51.7
2022-10-02T09:21:22.492Z,51.6
2022-10-02T09:22:39.528Z,50.9
2022-10-02T09:23:56.471Z,49.8
2022-10-02T09:25:13.444Z,50.5
2022-10-02T09:26:30.517Z,50.3
2022-10-02T09:27:47.561Z,51.5
2022-10-02T09:29:04.462Z,52.3
2022-10-02T09:30:21.649Z,52.5
2022-10-02T09:31:39.049Z,52.3
2022-10-02T09:32:56.493Z,52.1
2022-10-02T09:34:13.528Z,52.3
2022-10-02T09:35:30.467Z,52.8
2022-10-02T09:36:47.559Z,52.7
2022-10-02T09:38:04.485Z,52.3
2022-10-02T09:39:21.466Z,51.9
2022-10-02T09:40:38.490Z,52.1
2022-10-02T09:41:55.517Z,51.4
2022-10-02T09:43:12.492Z,51.7
2022-10-02T09:44:29.523Z,52.4
2022-10-02T09:45:46.556Z,51.8
2022-10-02T09:47:03.515Z,50.6
2022-10-02T09:48:20.502Z,49.5
2022-10-02T09:49:37.568Z,50
2022-10-02T09:50:56.425Z,51.8
2022-10-02T09:52:13.519Z,53.9
2022-10-02T09:53:30.583Z,55
2022-10-02T09:54:47.548Z,56.3
2022-10-02T09:56:04.598Z,57.2
2022-10-02T09:57:21.550Z,58.3
2022-10-02T09:58:38.574Z,58.1
2022-10-02T09:59:55.498Z,56.8
2022-10-02T10:01:12.614Z,54.9
2022-10-02T10:02:29.607Z,53.8
2022-10-02T10:03:46.536Z,52.4
2022-10-02T10:05:06.309Z,51.9
2022-10-02T10:06:20.583Z,51.4
2022-10-02T10:07:38.266Z,50.7
2022-10-02T10:08:58.034Z,50
2022-10-02T10:10:14.916Z,49.9
2022-10-02T10:11:33.321Z,49.1
2022-10-02T10:12:50.463Z,49.5
2022-10-02T10:14:08.343Z,48.4
2022-10-02T10:15:25.834Z,48
2022-10-02T10:16:44.066Z,48.1
2022-10-02T10:18:03.560Z,48.7
2022-10-02T10:19:21.728Z,49.1
2022-10-02T10:20:39.060Z,49.8
2022-10-02T10:21:57.329Z,49.8
2022-10-02T10:23:15.043Z,49
2022-10-02T10:24:33.166Z,48.7
2022-10-02T10:25:50.819Z,47.6
2022-10-02T10:27:08.358Z,47.5
2022-10-02T10:28:25.253Z,47.3
2022-10-02T10:29:42.076Z,47.7
2022-10-02T10:30:59.435Z,48
2022-10-02T10:32:17.316Z,47.3
2022-10-02T10:33:35.461Z,47.6
2022-10-02T10:34:54.652Z,48.2
2022-10-02T10:36:12.238Z,48.7
2022-10-02T10:37:30.175Z,48.4
2022-10-02T10:38:48.505Z,48.2
2022-10-02T10:40:05.939Z,48.2
2022-10-02T10:41:23.205Z,46.9
2022-10-02T10:43:03.331Z,46.5
2022-10-02T10:43:58.391Z,45.8
2022-10-02T10:45:16.533Z,45.1
2022-10-02T10:46:34.155Z,45
2022-10-02T10:51:50.673Z,46.5
2022-10-02T10:53:08.135Z,46.9
2022-10-02T10:54:26.857Z,46.3
2022-10-02T10:55:45.276Z,45.1
2022-10-02T10:57:02.638Z,45
2022-10-02T10:58:20.575Z,44.8
2022-10-02T10:59:38.304Z,45.1
2022-10-02T11:00:56.551Z,44.7
2022-10-02T11:02:14.818Z,45.1
2022-10-02T11:03:33.120Z,45.9
2022-10-02T11:04:51.304Z,47
2022-10-02T11:06:09.395Z,47.7
2022-10-02T11:07:27.183Z,48.2
2022-10-02T11:08:45.367Z,48.7
2022-10-02T11:10:03.148Z,49.1
2022-10-02T11:11:21.153Z,49.7
2022-10-02T11:12:38.598Z,50.3
2022-10-02T11:13:56.455Z,51.5
2022-10-02T11:15:14.244Z,52.4
2022-10-02T11:16:32.521Z,52.2
2022-10-02T11:17:50.377Z,52.1
2022-10-02T11:19:08.306Z,51.5
2022-10-02T11:20:25.926Z,50.3
2022-10-02T11:21:45.226Z,49.2
2022-10-02T11:23:03.289Z,48.9
2022-10-02T11:24:22.317Z,48.5
2022-10-02T11:25:40.829Z,48.5
2022-10-02T11:26:58.454Z,48.8
2022-10-02T11:28:16.593Z,49.1
2022-10-02T11:29:34.248Z,49.6
2022-10-02T11:30:52.364Z,50.2
2022-10-02T11:32:10.235Z,51
2022-10-02T11:33:27.244Z,51.2
2022-10-02T11:34:45.372Z,51.2
2022-10-02T11:36:03.592Z,51.1
2022-10-02T11:37:21.244Z,51.4
2022-10-02T11:38:39.174Z,51.1
2022-10-02T11:39:57.118Z,50.8
2022-10-02T11:41:16.496Z,50.4
2022-10-02T11:42:34.327Z,50.7
2022-10-02T11:43:52.313Z,50.4
2022-10-02T11:45:10.853Z,49.9
2022-10-02T11:46:27.888Z,49.8
2022-10-02T11:47:45.321Z,49.2
2022-10-02T11:49:03.169Z,49.1
2022-10-02T11:50:21.297Z,49
2022-10-02T11:51:39.955Z,49.2
2022-10-02T11:52:57.268Z,49.5
2022-10-02T11:54:15.289Z,49.8
2022-10-02T11:55:33.348Z,50.5
2022-10-02T11:56:51.100Z,50.5
2022-10-02T11:58:08.738Z,50.6
2022-10-02T11:59:27.170Z,50.3
2022-10-02T12:00:45.806Z,49.8
2022-10-02T12:02:03.287Z,49.3
2022-10-02T12:03:21.319Z,48.7
2022-10-02T12:04:38.219Z,48.6
2022-10-02T12:05:56.543Z,48.4
2022-10-02T12:07:14.229Z,48.3
2022-10-02T12:08:31.782Z,48.6
2022-10-02T12:09:48.723Z,48.8
2022-10-02T12:11:05.743Z,49.1
2022-10-02T12:12:27.034Z,48.6
2022-10-02T12:13:39.820Z,49.1
2022-10-02T12:14:56.809Z,49.7
2022-10-02T12:16:16.600Z,50.2
2022-10-02T12:17:36.543Z,50.5
2022-10-02T12:18:59.889Z,50.9
2022-10-02T12:20:18.892Z,50.9
2022-10-02T12:21:39.054Z,50.5
2022-10-02T12:24:18.010Z,50.4
2022-10-02T12:25:38.197Z,50.7
2022-10-02T12:26:58.246Z,50.8
2022-10-02T12:28:18.367Z,50.9
2022-10-02T12:29:38.622Z,51.2
2022-10-02T12:30:58.715Z,51.7
2022-10-02T12:32:21.327Z,52
2022-10-02T12:33:42.815Z,52
2022-10-02T12:36:21.442Z,51.7
2022-10-02T12:37:41.097Z,51.7
2022-10-02T12:38:59.807Z,51.6
2022-10-02T12:40:23.489Z,51.6
2022-10-02T12:41:43.297Z,51.6
2022-10-02T12:43:01.087Z,51.1
2022-10-02T12:44:20.935Z,51.5
2022-10-02T12:45:40.933Z,51.2
2022-10-02T12:46:59.687Z,50.7
2022-10-02T12:48:22.789Z,50.5
2022-10-02T12:49:42.467Z,50.6
2022-10-02T12:52:25.566Z,51
2022-10-02T12:53:45.245Z,50.5
2022-10-02T12:55:06.274Z,50.5
2022-10-02T12:56:26.117Z,50.7
2022-10-02T12:57:48.652Z,50.5
2022-10-02T12:59:09.212Z,50.8
2022-10-02T13:00:30.813Z,51.5
2022-10-02T13:01:50.199Z,51.7
2022-10-02T13:03:16.265Z,51.9
2022-10-02T13:04:38.720Z,51.8
2022-10-02T13:07:21.066Z,50.8
2022-10-02T13:08:41.052Z,50.2
2022-10-02T13:10:00.241Z,49.5
2022-10-02T13:11:20.459Z,49.6
2022-10-02T13:12:40.737Z,50.3
2022-10-02T13:14:01.322Z,50.4
2022-10-02T13:15:24.540Z,50.7
2022-10-02T13:16:44.967Z,50.5
2022-10-02T13:18:05.811Z,50.2
2022-10-02T13:19:25.696Z,50.2
2022-10-02T13:20:45.805Z,50.4
2022-10-02T13:22:06.237Z,50.7
2022-10-02T13:23:27.962Z,51.2
2022-10-02T13:24:47.066Z,51.2
2022-10-02T13:26:06.206Z,50.9
2022-10-02T13:28:45.663Z,50.4
2022-10-02T13:30:05.997Z,49.6
2022-10-02T13:31:26.028Z,49.4
2022-10-02T13:32:45.309Z,49.2
2022-10-02T13:34:04.825Z,49.3
2022-10-02T13:35:24.832Z,49.1
2022-10-02T13:36:44.875Z,49.1
2022-10-02T13:38:04.775Z,49.4
2022-10-02T13:39:24.782Z,50
2022-10-02T13:40:47.629Z,50.1
2022-10-02T13:42:24.631Z,50.3
2022-10-02T13:45:31.516Z,49.8
2022-10-02T13:47:10.531Z,49.7
2022-10-02T13:48:42.497Z,50
2022-10-02T13:50:17.750Z,50.5
2022-10-02T13:55:02.490Z,50.5
2022-10-02T13:56:22.656Z,49.5
2022-10-02T13:57:56.228Z,49.4
2022-10-02T13:59:34.968Z,49.8
2022-10-02T14:01:05.162Z,49.5
2022-10-02T14:07:54.614Z,49.3
2022-10-02T14:09:17.802Z,49.3
2022-10-02T14:10:38.819Z,49.4
2022-10-02T14:11:59.372Z,49.2
2022-10-02T14:13:22.281Z,49.2
2022-10-02T14:14:43.054Z,49
2022-10-02T14:17:29.587Z,49.9
2022-10-02T14:18:49.939Z,50.4
2022-10-02T14:20:13.140Z,51.1
2022-10-02T14:21:36.816Z,50.9
2022-10-02T14:22:56.522Z,50.6
2022-10-02T14:24:16.198Z,49.9
2022-10-02T14:25:38.623Z,50.1
2022-10-02T14:27:04.518Z,50.1
2022-10-02T14:28:24.118Z,49.9
2022-10-02T14:29:43.689Z,50.4
2022-10-02T14:31:04.231Z,50.6
2022-10-02T14:32:24.311Z,50.9
2022-10-02T14:33:44.228Z,51.5
2022-10-02T14:35:11.211Z,52.1
2022-10-02T14:36:27.910Z,52.9
2022-10-02T14:39:12.770Z,54.5
2022-10-02T14:40:36.413Z,54.9
2022-10-02T14:41:59.840Z,55.7
2022-10-02T14:43:19.738Z,56.6
2022-10-02T14:44:40.102Z,57.5
2022-10-02T14:46:00.825Z,58.2
2022-10-02T14:47:21.195Z,58.7
2022-10-02T14:48:41.035Z,59.2
2022-10-02T14:50:00.594Z,59.6
2022-10-02T14:51:20.999Z,60
2022-10-02T14:52:41.130Z,60.4
2022-10-02T14:54:01.397Z,60.7
2022-10-02T14:55:20.803Z,61
2022-10-02T14:56:40.785Z,61.2
2022-10-02T14:58:01.901Z,61.2
2022-10-02T14:59:22.653Z,61
2022-10-02T15:00:45.702Z,61
2022-10-02T15:02:07.828Z,60.9
2022-10-02T15:03:27.976Z,60.8
2022-10-02T15:04:48.290Z,61
2022-10-02T15:06:08.376Z,61.4
2022-10-02T15:07:27.696Z,61.6
2022-10-02T15:08:47.734Z,61.6
2022-10-02T15:10:08.321Z,61.5
2022-10-02T15:11:28.370Z,61.6
2022-10-02T15:12:48.534Z,61.8
2022-10-02T15:14:10.750Z,62
2022-10-02T15:15:31.097Z,62.2
2022-10-02T15:16:51.122Z,62.3
2022-10-02T15:18:11.089Z,62.3
2022-10-02T15:20:54.487Z,63
2022-10-02T15:23:36.505Z,66
2022-10-02T15:24:55.674Z,67.9
2022-10-02T15:26:18.936Z,70
2022-10-02T15:27:39.453Z,71.7
2022-10-02T15:28:59.574Z,72.9
2022-10-02T15:30:19.393Z,73.6
2022-10-02T15:31:40.138Z,73.7
2022-10-02T15:32:58.990Z,73.2
2022-10-02T15:34:19.776Z,72.9
2022-10-02T15:35:40.750Z,72.3
2022-10-02T15:37:00.385Z,71.6
2022-10-02T15:38:23.275Z,71.6
2022-10-02T15:39:43.462Z,71.3
2022-10-02T15:41:03.145Z,71.3
2022-10-02T15:42:23.401Z,71
2022-10-02T15:43:43.389Z,71
2022-10-02T15:45:02.978Z,71.6
2022-10-02T15:46:26.095Z,72.7
2022-10-02T15:47:52.280Z,73.1
2022-10-02T15:49:13.536Z,73.3
2022-10-02T15:50:33.405Z,73.3
2022-10-02T15:51:52.744Z,73.1
2022-10-02T15:53:13.843Z,72.8
2022-10-02T15:54:37.315Z,72.5
2022-10-02T15:56:00.264Z,73
2022-10-02T15:57:19.524Z,73.6
2022-10-02T15:58:39.198Z,74
2022-10-02T15:59:59.190Z,74.4
2022-10-02T16:01:18.833Z,74.7
2022-10-02T16:02:38.070Z,74.5
2022-10-02T16:03:57.528Z,74.3
2022-10-02T16:05:17.053Z,73.8
2022-10-02T16:06:37.491Z,73.6
2022-10-02T16:07:57.504Z,73.7
2022-10-02T16:09:16.091Z,73.9
2022-10-02T16:10:38.023Z,74.1
2022-10-02T16:12:01.664Z,73.7
2022-10-02T16:13:20.021Z,73.9
2022-10-02T16:14:40.438Z,74.1
2022-10-02T16:16:03.935Z,74.2
2022-10-02T16:17:24.714Z,74.2
2022-10-02T16:18:44.178Z,74.4
2022-10-02T16:20:04.232Z,74.5
2022-10-02T16:21:24.433Z,74.5
2022-10-02T16:22:44.718Z,74.6
2022-10-02T16:24:05.210Z,74.8
2022-10-02T16:25:24.985Z,74.8
2022-10-02T16:26:48.641Z,74.7
2022-10-02T16:28:08.165Z,74.4
2022-10-02T16:29:30.668Z,74.4
2022-10-02T16:30:49.056Z,74.1
2022-10-02T16:32:11.244Z,74
2022-10-02T16:33:34.672Z,73.6
2022-10-02T16:34:54.273Z,73.2
2022-10-02T16:36:15.007Z,72.8
2022-10-02T16:37:34.906Z,72.6
2022-10-02T16:40:16.913Z,72.6
2022-10-02T16:41:37.094Z,72.2
2022-10-02T16:42:57.238Z,72.4
2022-10-02T16:44:17.681Z,72.6
2022-10-02T16:45:40.329Z,72.5
2022-10-02T16:46:59.991Z,72.7
2022-10-02T16:48:23.597Z,73.1
2022-10-02T16:49:44.343Z,73.7
2022-10-02T16:51:03.742Z,74
2022-10-02T16:52:23.209Z,74.3
2022-10-02T16:53:46.207Z,74.4
2022-10-02T16:55:05.682Z,74.7
2022-10-02T16:58:48.067Z,75.1
2022-10-02T17:00:05.705Z,75
2022-10-02T17:01:22.621Z,75.3
2022-10-02T17:02:42.505Z,75.8
2022-10-02T17:04:05.143Z,76.3
2022-10-02T17:05:26.042Z,77
2022-10-02T17:06:49.677Z,77.4
2022-10-02T17:08:12.807Z,77.8
2022-10-02T17:09:35.288Z,78.1
2022-10-02T17:10:55.558Z,78.5
2022-10-02T17:12:17.732Z,78.9
2022-10-02T17:13:37.247Z,79.2
2022-10-02T17:14:57.590Z,79.4
2022-10-02T17:16:21.027Z,79.4
2022-10-02T17:17:37.826Z,79
2022-10-02T17:18:56.460Z,78.6
2022-10-02T17:20:16.669Z,78.2
2022-10-02T17:21:36.552Z,78
2022-10-02T17:23:03.501Z,77.6
2022-10-02T17:24:26.461Z,77.2
2022-10-02T17:25:49.517Z,76.9
2022-10-02T17:27:11.879Z,76.9
2022-10-02T17:28:35.031Z,76.7
2022-10-02T17:29:56.444Z,76.3
2022-10-02T17:31:16.060Z,76.3
2022-10-02T17:32:35.838Z,76.2
2022-10-02T17:33:56.811Z,76.2
2022-10-02T17:35:16.857Z,76.1
2022-10-02T17:36:36.976Z,76.3
2022-10-02T17:37:56.878Z,76.5
2022-10-02T17:39:19.608Z,76.7
2022-10-02T17:40:39.292Z,76.5
2022-10-02T17:41:59.471Z,76.6
2022-10-02T17:43:22.298Z,76.6
2022-10-02T17:44:45.293Z,76.5
2022-10-02T17:46:03.105Z,76.7
2022-10-02T17:47:23.362Z,77
2022-10-02T17:48:45.878Z,77.4
2022-10-02T17:50:06.665Z,77.6
2022-10-02T17:51:51.665Z,77.2
2022-10-02T17:52:49.522Z,77.2
2022-10-02T17:54:12.984Z,77.2
2022-10-02T17:55:32.995Z,77.1
2022-10-02T17:56:53.828Z,77.1
2022-10-02T17:58:13.716Z,77.5
2022-10-02T17:59:33.672Z,77.3
2022-10-02T18:00:56.736Z,77.4
2022-10-02T18:02:17.039Z,76.9
2022-10-02T18:03:37.172Z,76.8
2022-10-02T18:04:58.275Z,77.3
2022-10-02T18:06:21.671Z,77.6
2022-10-02T18:07:42.158Z,77.8
2022-10-02T18:09:02.347Z,77.7
2022-10-02T18:10:25.129Z,77.8